Terminal Aerodrome Forecast
Issued by NWS

Home | Current Version | Previous Version | Text Only | Print | Product List | Glossary On
Versions: 1 2 3 4 5 6 7 8 9 10 11 12 13 14 15 16 17 18 19 20 21 22 23 24 25 26 27 28 29 30 31 32 33 34 35 36 37 38 39 40 41
000
FTAK31 PANC 191744
TAFACD
TAF
PACD 191744Z 1918/2018 29030G38KT P6SM VCSH SCT025 BKN035
      TEMPO 1918/1922 3SM -SHSN BLSN BKN025
     FM200200 27024G32KT P6SM VCSH SCT025 BKN040
     FM200700 23028G36KT P6SM VCSH BKN035
     FM201400 22028G38KT 3SM -SHSN SCT015 BKN025=

USA.gov is the U.S. government's official web portal to all federal, state and local government web resources and services.